sensor_id;sensor_type;location;lat;lon;timestamp;P1;durP1;ratioP1;P2;durP2;ratioP2
70052;SDS011;57398;52.032;4.376;2022-11-21T00:01:11;30.10;;;14.43;;
70052;SDS011;57398;52.032;4.376;2022-11-21T00:03:43;28.65;;;13.77;;
70052;SDS011;57398;52.032;4.376;2022-11-21T00:06:10;30.77;;;13.93;;
70052;SDS011;57398;52.032;4.376;2022-11-21T00:08:38;29.30;;;13.75;;
70052;SDS011;57398;52.032;4.376;2022-11-21T00:11:06;28.55;;;13.80;;
70052;SDS011;57398;52.032;4.376;2022-11-21T00:13:34;27.50;;;12.98;;
70052;SDS011;57398;52.032;4.376;2022-11-21T00:16:02;29.23;;;13.80;;
70052;SDS011;57398;52.032;4.376;2022-11-21T00:18:31;29.03;;;13.00;;
70052;SDS011;57398;52.032;4.376;2022-11-21T00:21:03;29.35;;;13.15;;
70052;SDS011;57398;52.032;4.376;2022-11-21T00:23:32;29.80;;;13.25;;
70052;SDS011;57398;52.032;4.376;2022-11-21T00:26:03;30.23;;;13.40;;
70052;SDS011;57398;52.032;4.376;2022-11-21T00:28:32;27.15;;;12.63;;
70052;SDS011;57398;52.032;4.376;2022-11-21T00:31:00;29.00;;;13.57;;
70052;SDS011;57398;52.032;4.376;2022-11-21T00:33:28;29.70;;;12.85;;
70052;SDS011;57398;52.032;4.376;2022-11-21T00:35:56;29.52;;;14.25;;
70052;SDS011;57398;52.032;4.376;2022-11-21T00:38:27;28.90;;;13.20;;
70052;SDS011;57398;52.032;4.376;2022-11-21T00:40:54;29.00;;;13.43;;
70052;SDS011;57398;52.032;4.376;2022-11-21T00:43:22;27.10;;;12.47;;
70052;SDS011;57398;52.032;4.376;2022-11-21T00:45:50;29.85;;;12.35;;
70052;SDS011;57398;52.032;4.376;2022-11-21T00:48:17;29.50;;;12.32;;
70052;SDS011;57398;52.032;4.376;2022-11-21T00:50:46;27.42;;;11.93;;
70052;SDS011;57398;52.032;4.376;2022-11-21T00:53:15;28.02;;;12.73;;
70052;SDS011;57398;52.032;4.376;2022-11-21T00:55:44;32.53;;;13.53;;
70052;SDS011;57398;52.032;4.376;2022-11-21T00:58:11;31.48;;;13.85;;
70052;SDS011;57398;52.032;4.376;2022-11-21T01:00:39;33.13;;;14.77;;
70052;SDS011;57398;52.032;4.376;2022-11-21T01:03:07;34.28;;;13.85;;
70052;SDS011;57398;52.032;4.376;2022-11-21T01:05:34;36.85;;;15.65;;
70052;SDS011;57398;52.032;4.376;2022-11-21T01:08:02;33.87;;;14.40;;
70052;SDS011;57398;52.032;4.376;2022-11-21T01:10:30;39.15;;;15.38;;
70052;SDS011;57398;52.032;4.376;2022-11-21T01:13:01;36.10;;;14.88;;
70052;SDS011;57398;52.032;4.376;2022-11-21T01:15:28;35.50;;;15.57;;
70052;SDS011;57398;52.032;4.376;2022-11-21T01:17:56;38.08;;;16.17;;
70052;SDS011;57398;52.032;4.376;2022-11-21T01:20:24;36.87;;;15.73;;
70052;SDS011;57398;52.032;4.376;2022-11-21T01:22:52;33.15;;;15.07;;
70052;SDS011;57398;52.032;4.376;2022-11-21T01:25:19;38.03;;;15.10;;
70052;SDS011;57398;52.032;4.376;2022-11-21T01:27:47;35.47;;;15.20;;
70052;SDS011;57398;52.032;4.376;2022-11-21T01:30:16;35.40;;;15.25;;
70052;SDS011;57398;52.032;4.376;2022-11-21T01:32:46;32.73;;;15.13;;
70052;SDS011;57398;52.032;4.376;2022-11-21T01:35:14;32.95;;;14.82;;
70052;SDS011;57398;52.032;4.376;2022-11-21T01:37:42;30.63;;;13.98;;
70052;SDS011;57398;52.032;4.376;2022-11-21T01:40:12;32.60;;;14.95;;
70052;SDS011;57398;52.032;4.376;2022-11-21T01:42:50;35.75;;;14.95;;
70052;SDS011;57398;52.032;4.376;2022-11-21T01:48:24;34.47;;;15.20;;
70052;SDS011;57398;52.032;4.376;2022-11-21T01:50:58;36.55;;;15.25;;
70052;SDS011;57398;52.032;4.376;2022-11-21T01:53:30;42.55;;;15.60;;
70052;SDS011;57398;52.032;4.376;2022-11-21T01:55:58;36.50;;;13.93;;
70052;SDS011;57398;52.032;4.376;2022-11-21T01:58:26;38.47;;;14.83;;
70052;SDS011;57398;52.032;4.376;2022-11-21T02:01:00;37.72;;;15.65;;
70052;SDS011;57398;52.032;4.376;2022-11-21T02:03:29;45.65;;;15.57;;
70052;SDS011;57398;52.032;4.376;2022-11-21T02:06:00;43.90;;;15.05;;
70052;SDS011;57398;52.032;4.376;2022-11-21T02:08:28;49.55;;;15.35;;
70052;SDS011;57398;52.032;4.376;2022-11-21T02:10:59;40.93;;;14.83;;
70052;SDS011;57398;52.032;4.376;2022-11-21T02:13:35;45.10;;;14.90;;
70052;SDS011;57398;52.032;4.376;2022-11-21T02:16:05;37.78;;;14.23;;
70052;SDS011;57398;52.032;4.376;2022-11-21T02:18:33;42.28;;;15.15;;
70052;SDS011;57398;52.032;4.376;2022-11-21T02:21:04;44.83;;;14.95;;
70052;SDS011;57398;52.032;4.376;2022-11-21T02:23:39;40.87;;;13.73;;
70052;SDS011;57398;52.032;4.376;2022-11-21T02:26:11;42.83;;;14.70;;
70052;SDS011;57398;52.032;4.376;2022-11-21T02:28:40;42.15;;;14.95;;
70052;SDS011;57398;52.032;4.376;2022-11-21T02:31:08;39.42;;;14.70;;
70052;SDS011;57398;52.032;4.376;2022-11-21T02:33:36;44.88;;;14.68;;
70052;SDS011;57398;52.032;4.376;2022-11-21T02:36:26;32.87;;;12.27;;
70052;SDS011;57398;52.032;4.376;2022-11-21T02:39:01;38.17;;;13.73;;
70052;SDS011;57398;52.032;4.376;2022-11-21T02:41:31;44.95;;;14.40;;
70052;SDS011;57398;52.032;4.376;2022-11-21T02:44:03;40.45;;;14.60;;
70052;SDS011;57398;52.032;4.376;2022-11-21T02:46:35;41.60;;;14.77;;
70052;SDS011;57398;52.032;4.376;2022-11-21T02:49:13;41.37;;;15.00;;
70052;SDS011;57398;52.032;4.376;2022-11-21T02:51:47;46.67;;;14.43;;
70052;SDS011;57398;52.032;4.376;2022-11-21T02:54:14;51.28;;;14.68;;
70052;SDS011;57398;52.032;4.376;2022-11-21T02:56:43;43.45;;;14.05;;
70052;SDS011;57398;52.032;4.376;2022-11-21T02:59:11;56.88;;;14.85;;
70052;SDS011;57398;52.032;4.376;2022-11-21T03:01:39;60.87;;;14.20;;
70052;SDS011;57398;52.032;4.376;2022-11-21T03:04:06;55.03;;;13.90;;
70052;SDS011;57398;52.032;4.376;2022-11-21T03:06:34;54.80;;;14.75;;
70052;SDS011;57398;52.032;4.376;2022-11-21T03:09:02;61.25;;;15.05;;
70052;SDS011;57398;52.032;4.376;2022-11-21T03:11:30;49.35;;;13.90;;
70052;SDS011;57398;52.032;4.376;2022-11-21T03:13:59;47.03;;;14.57;;
70052;SDS011;57398;52.032;4.376;2022-11-21T03:16:26;41.65;;;14.57;;
70052;SDS011;57398;52.032;4.376;2022-11-21T03:18:54;37.97;;;13.32;;
70052;SDS011;57398;52.032;4.376;2022-11-21T03:21:23;39.10;;;13.02;;
70052;SDS011;57398;52.032;4.376;2022-11-21T03:23:50;42.60;;;13.95;;
70052;SDS011;57398;52.032;4.376;2022-11-21T03:26:18;40.40;;;14.13;;
70052;SDS011;57398;52.032;4.376;2022-11-21T03:28:46;39.17;;;13.90;;
70052;SDS011;57398;52.032;4.376;2022-11-21T03:31:15;36.88;;;12.80;;
70052;SDS011;57398;52.032;4.376;2022-11-21T03:33:42;48.13;;;13.90;;
70052;SDS011;57398;52.032;4.376;2022-11-21T03:36:10;40.75;;;13.65;;
70052;SDS011;57398;52.032;4.376;2022-11-21T03:38:38;43.87;;;13.60;;
70052;SDS011;57398;52.032;4.376;2022-11-21T03:41:06;35.55;;;12.60;;
70052;SDS011;57398;52.032;4.376;2022-11-21T03:43:53;40.20;;;12.80;;
70052;SDS011;57398;52.032;4.376;2022-11-21T03:46:22;36.05;;;11.82;;
70052;SDS011;57398;52.032;4.376;2022-11-21T03:48:50;44.25;;;11.90;;
70052;SDS011;57398;52.032;4.376;2022-11-21T03:51:18;35.23;;;12.37;;
70052;SDS011;57398;52.032;4.376;2022-11-21T03:53:46;34.28;;;11.25;;
70052;SDS011;57398;52.032;4.376;2022-11-21T03:56:14;34.03;;;11.95;;
70052;SDS011;57398;52.032;4.376;2022-11-21T03:58:42;40.47;;;11.77;;
70052;SDS011;57398;52.032;4.376;2022-11-21T04:01:11;35.05;;;12.18;;
70052;SDS011;57398;52.032;4.376;2022-11-21T04:03:41;37.03;;;12.23;;
70052;SDS011;57398;52.032;4.376;2022-11-21T04:06:09;34.67;;;12.05;;
70052;SDS011;57398;52.032;4.376;2022-11-21T04:08:37;41.55;;;12.05;;
70052;SDS011;57398;52.032;4.376;2022-11-21T04:11:05;39.95;;;12.25;;
70052;SDS011;57398;52.032;4.376;2022-11-21T04:13:33;34.20;;;12.50;;
70052;SDS011;57398;52.032;4.376;2022-11-21T04:16:02;30.83;;;12.43;;
70052;SDS011;57398;52.032;4.376;2022-11-21T04:18:30;34.30;;;12.63;;
70052;SDS011;57398;52.032;4.376;2022-11-21T04:20:59;40.65;;;13.00;;
70052;SDS011;57398;52.032;4.376;2022-11-21T04:23:28;30.10;;;12.48;;
70052;SDS011;57398;52.032;4.376;2022-11-21T04:25:56;36.00;;;12.43;;
70052;SDS011;57398;52.032;4.376;2022-11-21T04:28:24;31.33;;;11.90;;
70052;SDS011;57398;52.032;4.376;2022-11-21T04:30:51;30.45;;;12.55;;
70052;SDS011;57398;52.032;4.376;2022-11-21T04:33:20;36.40;;;12.15;;
70052;SDS011;57398;52.032;4.376;2022-11-21T04:35:48;42.58;;;12.13;;
70052;SDS011;57398;52.032;4.376;2022-11-21T04:38:17;36.25;;;11.60;;
70052;SDS011;57398;52.032;4.376;2022-11-21T04:40:44;29.57;;;11.80;;
70052;SDS011;57398;52.032;4.376;2022-11-21T04:43:12;33.17;;;12.52;;
70052;SDS011;57398;52.032;4.376;2022-11-21T04:45:40;38.67;;;12.60;;
70052;SDS011;57398;52.032;4.376;2022-11-21T04:48:09;29.35;;;12.05;;
70052;SDS011;57398;52.032;4.376;2022-11-21T04:50:37;27.90;;;12.23;;
70052;SDS011;57398;52.032;4.376;2022-11-21T04:53:05;37.67;;;12.30;;
70052;SDS011;57398;52.032;4.376;2022-11-21T04:55:34;38.22;;;12.65;;
70052;SDS011;57398;52.032;4.376;2022-11-21T04:58:02;33.75;;;11.82;;
70052;SDS011;57398;52.032;4.376;2022-11-21T05:00:29;29.80;;;11.75;;
70052;SDS011;57398;52.032;4.376;2022-11-21T05:03:00;28.35;;;11.73;;
70052;SDS011;57398;52.032;4.376;2022-11-21T05:05:29;36.83;;;12.70;;
70052;SDS011;57398;52.032;4.376;2022-11-21T05:07:56;35.50;;;11.38;;
70052;SDS011;57398;52.032;4.376;2022-11-21T05:10:24;33.13;;;12.63;;
70052;SDS011;57398;52.032;4.376;2022-11-21T05:12:57;35.42;;;12.55;;
70052;SDS011;57398;52.032;4.376;2022-11-21T05:15:41;39.13;;;12.20;;
70052;SDS011;57398;52.032;4.376;2022-11-21T05:18:09;31.83;;;12.83;;
70052;SDS011;57398;52.032;4.376;2022-11-21T05:20:37;29.15;;;13.27;;
70052;SDS011;57398;52.032;4.376;2022-11-21T05:23:04;31.40;;;11.85;;
70052;SDS011;57398;52.032;4.376;2022-11-21T05:25:31;29.20;;;12.07;;
70052;SDS011;57398;52.032;4.376;2022-11-21T05:28:00;32.78;;;11.48;;
70052;SDS011;57398;52.032;4.376;2022-11-21T05:30:28;33.40;;;12.23;;
70052;SDS011;57398;52.032;4.376;2022-11-21T05:32:56;30.10;;;11.73;;
70052;SDS011;57398;52.032;4.376;2022-11-21T05:35:23;31.95;;;12.20;;
70052;SDS011;57398;52.032;4.376;2022-11-21T05:37:54;30.65;;;12.43;;
70052;SDS011;57398;52.032;4.376;2022-11-21T05:40:22;34.17;;;12.20;;
70052;SDS011;57398;52.032;4.376;2022-11-21T05:42:49;34.27;;;11.77;;
70052;SDS011;57398;52.032;4.376;2022-11-21T05:45:36;33.90;;;12.13;;
70052;SDS011;57398;52.032;4.376;2022-11-21T05:48:04;31.20;;;11.32;;
70052;SDS011;57398;52.032;4.376;2022-11-21T05:50:33;25.75;;;11.38;;
70052;SDS011;57398;52.032;4.376;2022-11-21T05:53:02;38.15;;;11.65;;
70052;SDS011;57398;52.032;4.376;2022-11-21T05:55:30;35.33;;;11.77;;
70052;SDS011;57398;52.032;4.376;2022-11-21T05:58:00;33.72;;;11.55;;
70052;SDS011;57398;52.032;4.376;2022-11-21T06:00:27;40.00;;;11.90;;
70052;SDS011;57398;52.032;4.376;2022-11-21T06:02:57;37.35;;;11.82;;
70052;SDS011;57398;52.032;4.376;2022-11-21T06:05:42;38.65;;;11.45;;
70052;SDS011;57398;52.032;4.376;2022-11-21T06:08:10;31.40;;;11.23;;
70052;SDS011;57398;52.032;4.376;2022-11-21T06:10:37;30.15;;;10.25;;
70052;SDS011;57398;52.032;4.376;2022-11-21T06:13:05;29.73;;;10.40;;
70052;SDS011;57398;52.032;4.376;2022-11-21T06:15:48;27.77;;;10.85;;
70052;SDS011;57398;52.032;4.376;2022-11-21T06:18:17;22.60;;;10.30;;
70052;SDS011;57398;52.032;4.376;2022-11-21T06:20:46;25.07;;;10.60;;
70052;SDS011;57398;52.032;4.376;2022-11-21T06:23:13;23.42;;;9.98;;
70052;SDS011;57398;52.032;4.376;2022-11-21T06:25:41;24.10;;;10.82;;
70052;SDS011;57398;52.032;4.376;2022-11-21T06:28:10;23.67;;;11.43;;
70052;SDS011;57398;52.032;4.376;2022-11-21T06:30:38;23.67;;;10.50;;
70052;SDS011;57398;52.032;4.376;2022-11-21T06:33:06;23.80;;;10.10;;
70052;SDS011;57398;52.032;4.376;2022-11-21T06:35:37;21.75;;;10.75;;
70052;SDS011;57398;52.032;4.376;2022-11-21T06:38:06;25.63;;;11.52;;
70052;SDS011;57398;52.032;4.376;2022-11-21T06:40:34;25.23;;;11.05;;
70052;SDS011;57398;52.032;4.376;2022-11-21T06:43:01;23.00;;;11.20;;
70052;SDS011;57398;52.032;4.376;2022-11-21T06:45:29;24.13;;;10.80;;
70052;SDS011;57398;52.032;4.376;2022-11-21T06:47:59;24.95;;;11.40;;
70052;SDS011;57398;52.032;4.376;2022-11-21T06:50:27;23.80;;;11.20;;
70052;SDS011;57398;52.032;4.376;2022-11-21T06:52:57;26.23;;;12.32;;
70052;SDS011;57398;52.032;4.376;2022-11-21T06:55:25;25.23;;;11.38;;
70052;SDS011;57398;52.032;4.376;2022-11-21T06:57:55;26.37;;;11.63;;
70052;SDS011;57398;52.032;4.376;2022-11-21T07:00:23;23.33;;;11.27;;
70052;SDS011;57398;52.032;4.376;2022-11-21T07:02:54;23.90;;;11.50;;
70052;SDS011;57398;52.032;4.376;2022-11-21T07:05:28;26.33;;;10.55;;
70052;SDS011;57398;52.032;4.376;2022-11-21T07:07:58;23.60;;;11.27;;
70052;SDS011;57398;52.032;4.376;2022-11-21T07:10:26;28.53;;;11.63;;
70052;SDS011;57398;52.032;4.376;2022-11-21T07:12:55;23.42;;;10.98;;
70052;SDS011;57398;52.032;4.376;2022-11-21T07:15:41;24.73;;;10.32;;
70052;SDS011;57398;52.032;4.376;2022-11-21T07:18:09;29.23;;;11.80;;
70052;SDS011;57398;52.032;4.376;2022-11-21T07:20:36;24.30;;;11.55;;
70052;SDS011;57398;52.032;4.376;2022-11-21T07:23:06;25.63;;;11.57;;
70052;SDS011;57398;52.032;4.376;2022-11-21T07:25:34;27.02;;;11.52;;
70052;SDS011;57398;52.032;4.376;2022-11-21T07:28:02;28.80;;;11.70;;
70052;SDS011;57398;52.032;4.376;2022-11-21T07:30:30;32.22;;;12.90;;
70052;SDS011;57398;52.032;4.376;2022-11-21T07:32:58;36.58;;;12.02;;
70052;SDS011;57398;52.032;4.376;2022-11-21T07:35:27;45.87;;;12.73;;
70052;SDS011;57398;52.032;4.376;2022-11-21T07:37:55;44.95;;;11.55;;
70052;SDS011;57398;52.032;4.376;2022-11-21T07:40:24;43.83;;;11.73;;
70052;SDS011;57398;52.032;4.376;2022-11-21T07:42:51;44.67;;;12.23;;
70052;SDS011;57398;52.032;4.376;2022-11-21T07:45:22;43.10;;;11.00;;
70052;SDS011;57398;52.032;4.376;2022-11-21T07:47:55;44.17;;;11.70;;
70052;SDS011;57398;52.032;4.376;2022-11-21T07:50:24;41.45;;;11.68;;
70052;SDS011;57398;52.032;4.376;2022-11-21T07:52:55;42.40;;;11.80;;
70052;SDS011;57398;52.032;4.376;2022-11-21T07:55:25;40.63;;;11.73;;
70052;SDS011;57398;52.032;4.376;2022-11-21T07:57:58;32.78;;;11.23;;
70052;SDS011;57398;52.032;4.376;2022-11-21T08:00:27;40.07;;;11.20;;
70052;SDS011;57398;52.032;4.376;2022-11-21T08:02:56;34.05;;;12.38;;
70052;SDS011;57398;52.032;4.376;2022-11-21T08:05:24;38.25;;;12.90;;
70052;SDS011;57398;52.032;4.376;2022-11-21T08:07:51;48.78;;;12.38;;
70052;SDS011;57398;52.032;4.376;2022-11-21T08:10:19;33.15;;;11.27;;
70052;SDS011;57398;52.032;4.376;2022-11-21T08:12:48;31.30;;;11.53;;
70052;SDS011;57398;52.032;4.376;2022-11-21T08:15:16;30.63;;;11.68;;
70052;SDS011;57398;52.032;4.376;2022-11-21T08:17:43;30.70;;;11.55;;
70052;SDS011;57398;52.032;4.376;2022-11-21T08:20:11;28.83;;;11.13;;
70052;SDS011;57398;52.032;4.376;2022-11-21T08:22:40;27.77;;;11.35;;
70052;SDS011;57398;52.032;4.376;2022-11-21T08:25:08;24.20;;;11.00;;
70052;SDS011;57398;52.032;4.376;2022-11-21T08:27:37;28.10;;;10.73;;
70052;SDS011;57398;52.032;4.376;2022-11-21T08:30:07;25.00;;;10.23;;
70052;SDS011;57398;52.032;4.376;2022-11-21T08:32:37;25.58;;;10.18;;
70052;SDS011;57398;52.032;4.376;2022-11-21T08:35:05;21.30;;;10.82;;
70052;SDS011;57398;52.032;4.376;2022-11-21T08:37:33;23.90;;;11.03;;
70052;SDS011;57398;52.032;4.376;2022-11-21T08:40:01;22.88;;;10.88;;
70052;SDS011;57398;52.032;4.376;2022-11-21T08:42:28;26.15;;;11.02;;
70052;SDS011;57398;52.032;4.376;2022-11-21T08:44:56;22.00;;;10.52;;
70052;SDS011;57398;52.032;4.376;2022-11-21T08:47:25;21.05;;;9.98;;
70052;SDS011;57398;52.032;4.376;2022-11-21T08:49:53;23.17;;;10.70;;
70052;SDS011;57398;52.032;4.376;2022-11-21T08:52:20;22.17;;;10.77;;
70052;SDS011;57398;52.032;4.376;2022-11-21T08:54:48;26.35;;;11.77;;
70052;SDS011;57398;52.032;4.376;2022-11-21T08:57:16;21.90;;;11.15;;
70052;SDS011;57398;52.032;4.376;2022-11-21T08:59:43;24.90;;;11.75;;
70052;SDS011;57398;52.032;4.376;2022-11-21T09:02:11;22.80;;;11.13;;
70052;SDS011;57398;52.032;4.376;2022-11-21T09:04:40;26.88;;;12.10;;
70052;SDS011;57398;52.032;4.376;2022-11-21T09:07:08;23.42;;;10.70;;
70052;SDS011;57398;52.032;4.376;2022-11-21T09:09:35;23.08;;;10.55;;
70052;SDS011;57398;52.032;4.376;2022-11-21T09:12:03;24.10;;;10.40;;
70052;SDS011;57398;52.032;4.376;2022-11-21T09:14:31;23.03;;;10.37;;
70052;SDS011;57398;52.032;4.376;2022-11-21T09:17:16;23.30;;;10.43;;
70052;SDS011;57398;52.032;4.376;2022-11-21T09:20:03;23.33;;;10.45;;
70052;SDS011;57398;52.032;4.376;2022-11-21T09:22:32;25.05;;;10.77;;
70052;SDS011;57398;52.032;4.376;2022-11-21T09:24:59;24.20;;;10.35;;
70052;SDS011;57398;52.032;4.376;2022-11-21T09:27:27;22.20;;;10.67;;
70052;SDS011;57398;52.032;4.376;2022-11-21T09:29:56;25.90;;;10.13;;
70052;SDS011;57398;52.032;4.376;2022-11-21T09:32:24;22.00;;;11.52;;
70052;SDS011;57398;52.032;4.376;2022-11-21T09:34:51;30.42;;;11.93;;
70052;SDS011;57398;52.032;4.376;2022-11-21T09:37:20;25.88;;;12.63;;
70052;SDS011;57398;52.032;4.376;2022-11-21T09:39:48;22.73;;;12.00;;
70052;SDS011;57398;52.032;4.376;2022-11-21T09:42:32;23.60;;;11.90;;
70052;SDS011;57398;52.032;4.376;2022-11-21T09:45:22;19.63;;;10.38;;
70052;SDS011;57398;52.032;4.376;2022-11-21T09:47:54;24.70;;;11.68;;
70052;SDS011;57398;52.032;4.376;2022-11-21T09:50:24;22.77;;;10.70;;
70052;SDS011;57398;52.032;4.376;2022-11-21T09:52:57;22.67;;;10.23;;
70052;SDS011;57398;52.032;4.376;2022-11-21T09:55:34;20.45;;;9.40;;
70052;SDS011;57398;52.032;4.376;2022-11-21T09:58:11;19.52;;;7.60;;
70052;SDS011;57398;52.032;4.376;2022-11-21T10:00:45;16.38;;;6.50;;
70052;SDS011;57398;52.032;4.376;2022-11-21T10:03:13;15.82;;;7.15;;
70052;SDS011;57398;52.032;4.376;2022-11-21T10:05:47;19.63;;;6.90;;
70052;SDS011;57398;52.032;4.376;2022-11-21T10:08:22;17.02;;;6.78;;
70052;SDS011;57398;52.032;4.376;2022-11-21T10:10:57;14.88;;;5.95;;
70052;SDS011;57398;52.032;4.376;2022-11-21T10:13:44;21.65;;;7.53;;
70052;SDS011;57398;52.032;4.376;2022-11-21T10:16:20;16.38;;;7.03;;
70052;SDS011;57398;52.032;4.376;2022-11-21T10:19:13;14.50;;;7.07;;
70052;SDS011;57398;52.032;4.376;2022-11-21T10:25:17;15.88;;;8.02;;
70052;SDS011;57398;52.032;4.376;2022-11-21T10:27:53;13.88;;;5.53;;
70052;SDS011;57398;52.032;4.376;2022-11-21T10:30:24;15.10;;;6.60;;
70052;SDS011;57398;52.032;4.376;2022-11-21T10:32:52;16.20;;;7.40;;
70052;SDS011;57398;52.032;4.376;2022-11-21T10:35:23;16.15;;;6.93;;
70052;SDS011;57398;52.032;4.376;2022-11-21T10:37:56;14.25;;;5.82;;
70052;SDS011;57398;52.032;4.376;2022-11-21T10:40:31;17.40;;;7.80;;
70052;SDS011;57398;52.032;4.376;2022-11-21T10:43:03;15.55;;;7.43;;
70052;SDS011;57398;52.032;4.376;2022-11-21T10:45:49;11.30;;;6.17;;
70052;SDS011;57398;52.032;4.376;2022-11-21T10:48:17;12.65;;;6.53;;
70052;SDS011;57398;52.032;4.376;2022-11-21T10:50:50;17.65;;;8.05;;
70052;SDS011;57398;52.032;4.376;2022-11-21T10:53:29;12.88;;;6.15;;
70052;SDS011;57398;52.032;4.376;2022-11-21T10:56:17;13.57;;;6.50;;
70052;SDS011;57398;52.032;4.376;2022-11-21T10:58:48;13.60;;;5.73;;
70052;SDS011;57398;52.032;4.376;2022-11-21T11:01:18;17.23;;;7.53;;
70052;SDS011;57398;52.032;4.376;2022-11-21T11:03:57;16.30;;;7.47;;
70052;SDS011;57398;52.032;4.376;2022-11-21T11:06:51;13.88;;;5.60;;
70052;SDS011;57398;52.032;4.376;2022-11-21T11:09:29;13.50;;;5.43;;
70052;SDS011;57398;52.032;4.376;2022-11-21T11:15:15;10.30;;;4.88;;
70052;SDS011;57398;52.032;4.376;2022-11-21T11:17:48;16.45;;;6.28;;
70052;SDS011;57398;52.032;4.376;2022-11-21T11:20:27;10.63;;;5.28;;
70052;SDS011;57398;52.032;4.376;2022-11-21T11:22:58;14.15;;;5.60;;
70052;SDS011;57398;52.032;4.376;2022-11-21T11:25:26;14.27;;;5.30;;
70052;SDS011;57398;52.032;4.376;2022-11-21T11:27:55;12.63;;;4.70;;
70052;SDS011;57398;52.032;4.376;2022-11-21T11:30:28;11.90;;;4.53;;
70052;SDS011;57398;52.032;4.376;2022-11-21T11:33:03;11.93;;;3.78;;
70052;SDS011;57398;52.032;4.376;2022-11-21T11:35:31;9.77;;;4.28;;
70052;SDS011;57398;52.032;4.376;2022-11-21T11:38:02;13.87;;;4.17;;
70052;SDS011;57398;52.032;4.376;2022-11-21T11:40:33;11.13;;;4.90;;
70052;SDS011;57398;52.032;4.376;2022-11-21T11:43:15;12.00;;;4.20;;
70052;SDS011;57398;52.032;4.376;2022-11-21T11:46:08;12.98;;;4.70;;
70052;SDS011;57398;52.032;4.376;2022-11-21T11:49:03;13.13;;;4.47;;
70052;SDS011;57398;52.032;4.376;2022-11-21T11:51:48;14.83;;;4.67;;
70052;SDS011;57398;52.032;4.376;2022-11-21T11:54:20;11.77;;;4.13;;
70052;SDS011;57398;52.032;4.376;2022-11-21T11:56:51;12.60;;;4.25;;
70052;SDS011;57398;52.032;4.376;2022-11-21T11:59:21;12.07;;;4.72;;
70052;SDS011;57398;52.032;4.376;2022-11-21T12:01:54;11.68;;;4.47;;
70052;SDS011;57398;52.032;4.376;2022-11-21T12:04:24;10.93;;;4.37;;
70052;SDS011;57398;52.032;4.376;2022-11-21T12:06:58;10.65;;;3.78;;
70052;SDS011;57398;52.032;4.376;2022-11-21T12:09:53;8.57;;;3.20;;
70052;SDS011;57398;52.032;4.376;2022-11-21T12:12:31;7.63;;;3.00;;
70052;SDS011;57398;52.032;4.376;2022-11-21T12:15:07;6.00;;;2.35;;
70052;SDS011;57398;52.032;4.376;2022-11-21T12:17:59;8.10;;;2.60;;
70052;SDS011;57398;52.032;4.376;2022-11-21T12:20:39;7.05;;;2.92;;
70052;SDS011;57398;52.032;4.376;2022-11-21T12:23:12;6.68;;;2.78;;
70052;SDS011;57398;52.032;4.376;2022-11-21T12:25:41;9.50;;;3.28;;
70052;SDS011;57398;52.032;4.376;2022-11-21T12:28:22;8.02;;;2.70;;
70052;SDS011;57398;52.032;4.376;2022-11-21T12:31:00;8.20;;;2.90;;
70052;SDS011;57398;52.032;4.376;2022-11-21T12:33:35;8.85;;;2.60;;
70052;SDS011;57398;52.032;4.376;2022-11-21T12:36:13;11.48;;;2.72;;
70052;SDS011;57398;52.032;4.376;2022-11-21T12:41:46;6.95;;;1.98;;
70052;SDS011;57398;52.032;4.376;2022-11-21T12:44:40;5.90;;;2.00;;
70052;SDS011;57398;52.032;4.376;2022-11-21T12:47:16;7.13;;;2.20;;
70052;SDS011;57398;52.032;4.376;2022-11-21T12:49:57;7.95;;;2.72;;
70052;SDS011;57398;52.032;4.376;2022-11-21T12:52:52;6.28;;;2.55;;
70052;SDS011;57398;52.032;4.376;2022-11-21T12:55:43;8.80;;;3.47;;
70052;SDS011;57398;52.032;4.376;2022-11-21T12:58:16;10.83;;;3.67;;
70052;SDS011;57398;52.032;4.376;2022-11-21T13:00:54;8.77;;;3.60;;
70052;SDS011;57398;52.032;4.376;2022-11-21T13:03:40;7.55;;;3.47;;
70052;SDS011;57398;52.032;4.376;2022-11-21T13:06:14;10.85;;;3.40;;
70052;SDS011;57398;52.032;4.376;2022-11-21T13:08:44;11.73;;;3.95;;
70052;SDS011;57398;52.032;4.376;2022-11-21T13:11:21;8.23;;;3.57;;
70052;SDS011;57398;52.032;4.376;2022-11-21T13:14:24;7.53;;;3.22;;
70052;SDS011;57398;52.032;4.376;2022-11-21T13:17:01;8.35;;;3.60;;
70052;SDS011;57398;52.032;4.376;2022-11-21T13:19:41;10.27;;;3.67;;
70052;SDS011;57398;52.032;4.376;2022-11-21T13:30:59;8.43;;;3.28;;
70052;SDS011;57398;52.032;4.376;2022-11-21T13:33:43;8.50;;;3.03;;
70052;SDS011;57398;52.032;4.376;2022-11-21T13:42:13;10.70;;;2.92;;
70052;SDS011;57398;52.032;4.376;2022-11-21T13:45:02;9.23;;;3.05;;
70052;SDS011;57398;52.032;4.376;2022-11-21T13:48:25;6.88;;;2.83;;
70052;SDS011;57398;52.032;4.376;2022-11-21T13:51:25;8.27;;;3.33;;
70052;SDS011;57398;52.032;4.376;2022-11-21T13:54:12;9.50;;;3.10;;
70052;SDS011;57398;52.032;4.376;2022-11-21T13:56:58;9.18;;;3.15;;
70052;SDS011;57398;52.032;4.376;2022-11-21T13:59:39;7.05;;;3.40;;
70052;SDS011;57398;52.032;4.376;2022-11-21T14:02:24;9.73;;;3.03;;
70052;SDS011;57398;52.032;4.376;2022-11-21T14:05:17;7.45;;;2.80;;
70052;SDS011;57398;52.032;4.376;2022-11-21T14:08:10;7.23;;;2.50;;
70052;SDS011;57398;52.032;4.376;2022-11-21T14:10:46;9.23;;;2.60;;
70052;SDS011;57398;52.032;4.376;2022-11-21T14:13:20;6.50;;;2.27;;
70052;SDS011;57398;52.032;4.376;2022-11-21T14:15:58;6.18;;;2.10;;
70052;SDS011;57398;52.032;4.376;2022-11-21T14:18:35;6.88;;;2.17;;
70052;SDS011;57398;52.032;4.376;2022-11-21T14:21:05;7.10;;;2.50;;
70052;SDS011;57398;52.032;4.376;2022-11-21T14:23:34;6.80;;;2.53;;
70052;SDS011;57398;52.032;4.376;2022-11-21T14:26:04;6.78;;;2.40;;
70052;SDS011;57398;52.032;4.376;2022-11-21T14:28:40;6.18;;;2.53;;
70052;SDS011;57398;52.032;4.376;2022-11-21T14:31:08;7.15;;;2.45;;
70052;SDS011;57398;52.032;4.376;2022-11-21T14:33:37;5.43;;;2.23;;
70052;SDS011;57398;52.032;4.376;2022-11-21T14:36:07;6.72;;;2.50;;
70052;SDS011;57398;52.032;4.376;2022-11-21T14:38:40;7.30;;;2.10;;
70052;SDS011;57398;52.032;4.376;2022-11-21T14:41:27;7.60;;;2.58;;
70052;SDS011;57398;52.032;4.376;2022-11-21T14:46:43;7.17;;;2.70;;
70052;SDS011;57398;52.032;4.376;2022-11-21T14:49:16;9.23;;;3.05;;
70052;SDS011;57398;52.032;4.376;2022-11-21T14:51:47;7.88;;;2.55;;
70052;SDS011;57398;52.032;4.376;2022-11-21T14:54:16;8.20;;;2.55;;
70052;SDS011;57398;52.032;4.376;2022-11-21T14:56:48;9.30;;;2.60;;
70052;SDS011;57398;52.032;4.376;2022-11-21T14:59:18;6.23;;;2.20;;
70052;SDS011;57398;52.032;4.376;2022-11-21T15:01:53;7.57;;;2.42;;
70052;SDS011;57398;52.032;4.376;2022-11-21T15:04:27;9.45;;;2.58;;
70052;SDS011;57398;52.032;4.376;2022-11-21T15:06:59;9.38;;;2.47;;
70052;SDS011;57398;52.032;4.376;2022-11-21T15:09:27;9.68;;;3.30;;
70052;SDS011;57398;52.032;4.376;2022-11-21T15:12:20;9.90;;;3.33;;
70052;SDS011;57398;52.032;4.376;2022-11-21T15:14:53;10.95;;;3.80;;
70052;SDS011;57398;52.032;4.376;2022-11-21T15:17:24;11.00;;;4.10;;
70052;SDS011;57398;52.032;4.376;2022-11-21T15:20:14;9.35;;;3.95;;
70052;SDS011;57398;52.032;4.376;2022-11-21T15:22:45;9.40;;;3.70;;
70052;SDS011;57398;52.032;4.376;2022-11-21T15:25:16;11.57;;;3.70;;
70052;SDS011;57398;52.032;4.376;2022-11-21T15:27:47;10.90;;;3.92;;